createdAt,value
2023-11-29T00:02:02.006Z,12.60
2023-11-29T00:22:01.904Z,15.40
2023-11-29T00:27:01.917Z,15.40
2023-11-29T00:57:01.916Z,12.80
2023-11-29T01:02:02.019Z,11.20
2023-11-29T01:27:01.903Z,13.00
2023-11-29T01:37:01.913Z,13.70
2023-11-29T01:42:01.947Z,13.70
2023-11-29T01:47:01.958Z,15.00
2023-11-29T01:52:01.915Z,15.00
2023-11-29T02:02:01.956Z,10.30
2023-11-29T02:17:01.957Z,9.60
2023-11-29T02:27:01.950Z,9.60
2023-11-29T02:47:01.941Z,10.40
2023-11-29T03:27:01.964Z,13.00
2023-11-29T03:52:01.950Z,13.90
2023-11-29T03:57:01.954Z,13.90
2023-11-29T04:02:02.062Z,16.40
2023-11-29T04:07:01.952Z,16.40
2023-11-29T04:17:01.985Z,15.40
2023-11-29T04:22:01.952Z,15.40
2023-11-29T04:27:01.946Z,15.40
2023-11-29T04:32:01.957Z,15.20
2023-11-29T04:37:01.956Z,15.20
2023-11-29T04:57:02.050Z,16.80
2023-11-29T05:22:01.954Z,14.10
2023-11-29T05:42:01.978Z,15.10
2023-11-29T05:47:02.030Z,15.60
2023-11-29T05:52:02.000Z,15.60
2023-11-29T05:57:01.988Z,15.60
2023-11-29T06:12:01.999Z,13.80
2023-11-29T06:27:02.070Z,16.00
2023-11-29T06:32:01.989Z,13.10
2023-11-29T06:37:01.973Z,13.10
2023-11-29T06:52:02.000Z,7.80
2023-11-29T07:02:02.055Z,7.50
2023-11-29T07:07:01.973Z,7.50
2023-11-29T07:12:01.995Z,7.50
2023-11-29T07:22:02.027Z,5.30
2023-11-29T07:27:02.017Z,5.30
2023-11-29T07:32:02.081Z,6.60
2023-11-29T07:37:01.977Z,6.60
2023-11-29T07:42:01.992Z,6.60
2023-11-29T07:47:02.015Z,3.30
2023-11-29T07:52:01.991Z,3.30
2023-11-29T07:57:02.028Z,3.30
2023-11-29T08:02:02.002Z,4.60
2023-11-29T08:07:02.009Z,4.60
2023-11-29T08:12:02.052Z,4.60
2023-11-29T08:17:02.137Z,1.90
2023-11-29T08:27:02.022Z,1.90
2023-11-29T08:32:02.006Z,5.20
2023-11-29T08:37:01.989Z,5.20
2023-11-29T08:42:16.068Z,5.20
2023-11-29T08:47:04.107Z,3.60
2023-11-29T08:52:02.014Z,3.60
2023-11-29T09:02:02.073Z,2.90
2023-11-29T09:07:02.002Z,2.90
2023-11-29T09:12:02.067Z,2.90
2023-11-29T09:17:02.049Z,6.60
2023-11-29T09:22:02.013Z,6.60
2023-11-29T09:27:02.110Z,6.60
2023-11-29T09:32:02.009Z,3.50
2023-11-29T09:37:02.024Z,3.50
2023-11-29T09:42:02.063Z,3.50
2023-11-29T09:47:01.997Z,5.60
2023-11-29T09:52:02.031Z,5.60
2023-11-29T09:57:02.069Z,5.60
2023-11-29T10:02:02.041Z,8.70
2023-11-29T10:07:02.029Z,8.70
2023-11-29T10:12:02.095Z,8.70
2023-11-29T10:17:02.029Z,8.80
2023-11-29T10:22:02.031Z,8.80
2023-11-29T10:27:02.054Z,8.80
2023-11-29T10:32:02.128Z,5.60
2023-11-29T10:37:02.024Z,5.60
2023-11-29T10:42:02.160Z,5.60
2023-11-29T10:47:02.029Z,8.00
2023-11-29T10:52:02.045Z,8.00
2023-11-29T10:57:02.053Z,8.00
2023-11-29T11:02:02.207Z,6.80
2023-11-29T11:07:02.026Z,6.80
2023-11-29T11:22:02.055Z,4.20
2023-11-29T11:32:02.065Z,5.10
2023-11-29T11:37:02.023Z,5.10
2023-11-29T11:42:02.096Z,5.10
2023-11-29T11:47:02.038Z,4.00
2023-11-29T11:52:02.051Z,4.00
2023-11-29T11:57:02.064Z,4.00
2023-11-29T12:02:02.171Z,3.50
2023-11-29T12:07:02.022Z,3.50
2023-11-29T12:12:02.052Z,3.50
2023-11-29T12:22:02.061Z,4.00
2023-11-29T12:27:02.080Z,4.00
2023-11-29T12:32:02.049Z,6.40
2023-11-29T12:37:02.055Z,6.40
2023-11-29T12:42:02.078Z,6.40
2023-11-29T12:52:02.209Z,8.40
2023-11-29T12:57:02.156Z,8.40
2023-11-29T13:02:02.125Z,6.80
2023-11-29T13:07:02.050Z,6.80
2023-11-29T13:12:02.081Z,6.80
2023-11-29T13:17:02.040Z,5.50
2023-11-29T13:22:02.108Z,5.50
2023-11-29T13:27:02.104Z,5.50
2023-11-29T13:37:02.205Z,7.00
2023-11-29T13:42:02.116Z,7.00
2023-11-29T13:47:02.079Z,8.80
2023-11-29T13:52:08.751Z,8.80
2023-11-29T13:57:02.164Z,8.80
2023-11-29T14:02:07.090Z,5.00
2023-11-29T14:07:02.099Z,5.00
2023-11-29T14:12:02.104Z,5.00
2023-11-29T14:17:02.100Z,4.40
2023-11-29T14:22:02.059Z,4.40
2023-11-29T14:27:02.165Z,4.40
2023-11-29T14:32:02.073Z,4.90
2023-11-29T14:42:02.166Z,4.90
2023-11-29T14:47:03.462Z,4.40
2023-11-29T14:52:02.074Z,4.40
2023-11-29T14:57:02.138Z,4.40
2023-11-29T15:07:02.107Z,4.60
2023-11-29T15:17:02.092Z,3.10
2023-11-29T15:27:02.119Z,3.10
2023-11-29T15:32:02.239Z,3.10
2023-11-29T15:42:02.149Z,3.10
2023-11-29T15:47:02.175Z,2.50
2023-11-29T15:52:02.107Z,2.50
2023-11-29T16:12:02.132Z,5.00
2023-11-29T16:17:02.107Z,3.60
2023-11-29T16:27:02.165Z,3.60
2023-11-29T16:37:02.109Z,12.40
2023-11-29T16:42:02.155Z,12.40
2023-11-29T16:47:02.105Z,9.50
2023-11-29T16:52:02.094Z,9.50
2023-11-29T17:07:02.120Z,6.60
2023-11-29T17:12:02.165Z,6.60
2023-11-29T17:17:02.169Z,5.70
2023-11-29T17:22:02.120Z,5.70
2023-11-29T17:27:02.123Z,5.70
2023-11-29T17:37:02.115Z,5.60
2023-11-29T17:52:02.118Z,5.60
2023-11-29T17:57:02.180Z,5.60
2023-11-29T18:02:02.130Z,6.20
2023-11-29T18:07:02.130Z,6.20
2023-11-29T18:12:02.132Z,6.20
2023-11-29T18:17:02.147Z,5.40
2023-11-29T18:22:02.149Z,5.40
2023-11-29T18:27:02.179Z,5.40
2023-11-29T18:37:02.113Z,6.10
2023-11-29T18:42:02.160Z,6.10
2023-11-29T18:47:02.126Z,5.20
2023-11-29T18:52:02.142Z,5.20
2023-11-29T18:57:02.223Z,5.20
2023-11-29T19:02:02.327Z,6.30
2023-11-29T19:07:02.144Z,6.30
2023-11-29T19:12:02.199Z,6.30
2023-11-29T19:17:02.178Z,5.50
2023-11-29T19:32:02.148Z,7.40
2023-11-29T19:42:02.167Z,7.40
2023-11-29T19:47:10.187Z,5.50
2023-11-29T19:52:02.154Z,5.50
2023-11-29T19:57:02.231Z,5.50
2023-11-29T20:07:02.141Z,8.00
2023-11-29T20:12:02.156Z,8.00
2023-11-29T20:17:02.199Z,8.60
2023-11-29T20:22:02.156Z,8.60
2023-11-29T20:27:02.187Z,8.60
2023-11-29T20:32:02.160Z,7.30
2023-11-29T20:37:02.133Z,7.30
2023-11-29T20:42:02.223Z,7.30
2023-11-29T20:47:02.182Z,8.40
2023-11-29T20:52:02.165Z,8.40
2023-11-29T20:57:02.176Z,8.40
2023-11-29T21:02:02.180Z,7.60
2023-11-29T21:12:02.232Z,7.60
2023-11-29T21:17:02.166Z,8.40
2023-11-29T21:22:02.172Z,8.40
2023-11-29T21:27:02.222Z,8.40
2023-11-29T21:32:02.169Z,10.80
2023-11-29T21:37:02.150Z,10.80
2023-11-29T21:42:02.189Z,10.80
2023-11-29T21:47:02.208Z,8.00
2023-11-29T21:52:02.177Z,8.00
2023-11-29T21:57:02.230Z,8.00
2023-11-29T22:02:02.286Z,9.30
2023-11-29T22:12:02.293Z,9.30
2023-11-29T22:17:02.217Z,8.50
2023-11-29T22:22:02.195Z,8.50
2023-11-29T22:27:02.230Z,8.50
2023-11-29T22:37:02.190Z,8.40
2023-11-29T22:42:02.209Z,8.40
2023-11-29T22:47:02.198Z,8.20
2023-11-29T22:52:02.195Z,8.20
2023-11-29T22:57:02.192Z,8.20
2023-11-29T23:02:02.261Z,8.60
2023-11-29T23:07:02.163Z,8.60
2023-11-29T23:12:02.886Z,8.60
2023-11-29T23:17:02.261Z,11.50
2023-11-29T23:27:02.229Z,11.50
2023-11-29T23:32:02.202Z,13.50
2023-11-29T23:37:02.280Z,13.50
2023-11-29T23:42:02.211Z,13.50
2023-11-29T23:47:02.185Z,12.00
2023-11-29T23:52:02.189Z,12.00
